sensor_id;sensor_type;location;lat;lon;timestamp;temperature;humidity
20167;DHT22;10243;49.118;8.508;2022-07-23T19:03:43;30.20;74.60
20167;DHT22;10243;49.118;8.508;2022-07-23T19:06:45;28.80;80.80
20167;DHT22;10243;49.118;8.508;2022-07-23T19:09:47;28.60;80.20
20167;DHT22;10243;49.118;8.508;2022-07-23T19:12:49;28.60;80.00
20167;DHT22;10243;49.118;8.508;2022-07-23T19:15:51;28.60;79.70
20167;DHT22;10243;49.118;8.508;2022-07-23T19:18:55;28.60;79.10
20167;DHT22;10243;49.118;8.508;2022-07-23T19:21:57;28.60;80.40
20167;DHT22;10243;49.118;8.508;2022-07-23T19:25:01;28.50;82.40
20167;DHT22;10243;49.118;8.508;2022-07-23T19:28:04;28.40;83.40
20167;DHT22;10243;49.118;8.508;2022-07-23T19:31:07;28.30;82.70
20167;DHT22;10243;49.118;8.508;2022-07-23T19:34:11;28.30;83.70
20167;DHT22;10243;49.118;8.508;2022-07-23T19:37:14;28.20;83.70
20167;DHT22;10243;49.118;8.508;2022-07-23T19:40:17;28.00;83.50
20167;DHT22;10243;49.118;8.508;2022-07-23T19:43:20;28.00;85.20
20167;DHT22;10243;49.118;8.508;2022-07-23T19:46:22;27.90;84.30
20167;DHT22;10243;49.118;8.508;2022-07-23T19:49:26;27.80;83.80
20167;DHT22;10243;49.118;8.508;2022-07-23T19:52:28;27.70;84.00
20167;DHT22;10243;49.118;8.508;2022-07-23T19:55:31;27.70;85.70
20167;DHT22;10243;49.118;8.508;2022-07-23T19:58:34;27.80;83.90
20167;DHT22;10243;49.118;8.508;2022-07-23T20:01:36;27.70;85.50
20167;DHT22;10243;49.118;8.508;2022-07-23T20:04:40;27.50;85.00
20167;DHT22;10243;49.118;8.508;2022-07-23T20:07:43;27.50;85.70
20167;DHT22;10243;49.118;8.508;2022-07-23T20:10:46;27.50;85.00
20167;DHT22;10243;49.118;8.508;2022-07-23T20:13:48;27.50;88.00
20167;DHT22;10243;49.118;8.508;2022-07-23T20:16:51;27.50;87.20
20167;DHT22;10243;49.118;8.508;2022-07-23T20:19:55;27.50;86.00
20167;DHT22;10243;49.118;8.508;2022-07-23T20:22:57;27.50;87.30
20167;DHT22;10243;49.118;8.508;2022-07-23T20:25:59;27.60;86.60
20167;DHT22;10243;49.118;8.508;2022-07-23T20:29:01;27.50;86.00
20167;DHT22;10243;49.118;8.508;2022-07-23T20:32:04;27.50;84.80
20167;DHT22;10243;49.118;8.508;2022-07-23T20:35:08;27.50;85.60
20167;DHT22;10243;49.118;8.508;2022-07-23T20:38:10;27.20;87.30
20167;DHT22;10243;49.118;8.508;2022-07-23T20:41:12;27.30;86.50
20167;DHT22;10243;49.118;8.508;2022-07-23T20:44:14;27.40;85.60
20167;DHT22;10243;49.118;8.508;2022-07-23T20:47:16;27.30;87.00
20167;DHT22;10243;49.118;8.508;2022-07-23T20:50:19;27.30;86.20
20167;DHT22;10243;49.118;8.508;2022-07-23T20:53:21;27.20;86.60
20167;DHT22;10243;49.118;8.508;2022-07-23T20:56:23;27.00;86.90
20167;DHT22;10243;49.118;8.508;2022-07-23T20:59:25;27.00;88.00
20167;DHT22;10243;49.118;8.508;2022-07-23T21:02:27;26.70;88.40
20167;DHT22;10243;49.118;8.508;2022-07-23T21:05:31;26.60;88.30
20167;DHT22;10243;49.118;8.508;2022-07-23T21:08:33;26.60;88.70
20167;DHT22;10243;49.118;8.508;2022-07-23T21:11:34;26.60;88.80
20167;DHT22;10243;49.118;8.508;2022-07-23T21:14:36;26.70;89.00
20167;DHT22;10243;49.118;8.508;2022-07-23T21:17:39;26.60;89.40
20167;DHT22;10243;49.118;8.508;2022-07-23T21:20:42;26.60;89.70
20167;DHT22;10243;49.118;8.508;2022-07-23T21:24:02;26.60;89.10
20167;DHT22;10243;49.118;8.508;2022-07-23T21:27:04;26.60;88.00
20167;DHT22;10243;49.118;8.508;2022-07-23T21:30:07;26.70;88.90
20167;DHT22;10243;49.118;8.508;2022-07-23T21:33:10;26.70;88.70
20167;DHT22;10243;49.118;8.508;2022-07-23T21:36:13;26.80;88.00
20167;DHT22;10243;49.118;8.508;2022-07-23T21:39:16;26.80;88.20
20167;DHT22;10243;49.118;8.508;2022-07-23T21:42:18;26.80;87.50
20167;DHT22;10243;49.118;8.508;2022-07-23T21:45:20;26.70;87.60
20167;DHT22;10243;49.118;8.508;2022-07-23T21:48:22;26.40;88.20
20167;DHT22;10243;49.118;8.508;2022-07-23T21:51:25;26.10;89.70
20167;DHT22;10243;49.118;8.508;2022-07-23T21:54:28;25.90;90.60
20167;DHT22;10243;49.118;8.508;2022-07-23T21:57:31;26.00;90.50
20167;DHT22;10243;49.118;8.508;2022-07-23T22:00:37;26.00;90.60
20167;DHT22;10243;49.118;8.508;2022-07-23T22:03:39;26.00;91.20
20167;DHT22;10243;49.118;8.508;2022-07-23T22:06:42;25.80;90.80
20167;DHT22;10243;49.118;8.508;2022-07-23T22:09:44;25.70;90.90
20167;DHT22;10243;49.118;8.508;2022-07-23T22:12:49;25.60;91.20
20167;DHT22;10243;49.118;8.508;2022-07-23T22:15:54;25.40;91.00
20167;DHT22;10243;49.118;8.508;2022-07-23T22:18:56;25.20;91.10
20167;DHT22;10243;49.118;8.508;2022-07-23T22:21:59;25.30;91.30
20167;DHT22;10243;49.118;8.508;2022-07-23T22:25:02;24.90;92.00
20167;DHT22;10243;49.118;8.508;2022-07-23T22:28:04;24.70;93.30
20167;DHT22;10243;49.118;8.508;2022-07-23T22:31:06;24.90;93.00
20167;DHT22;10243;49.118;8.508;2022-07-23T22:34:08;25.20;92.80
20167;DHT22;10243;49.118;8.508;2022-07-23T22:37:11;25.20;92.20
20167;DHT22;10243;49.118;8.508;2022-07-23T22:40:15;25.20;92.60
20167;DHT22;10243;49.118;8.508;2022-07-23T22:43:17;25.30;92.80
20167;DHT22;10243;49.118;8.508;2022-07-23T22:46:19;25.40;92.40
20167;DHT22;10243;49.118;8.508;2022-07-23T22:49:21;25.50;92.70
20167;DHT22;10243;49.118;8.508;2022-07-23T22:52:24;25.40;92.70
20167;DHT22;10243;49.118;8.508;2022-07-23T22:55:26;25.40;92.70
20167;DHT22;10243;49.118;8.508;2022-07-23T22:58:28;25.40;93.00
20167;DHT22;10243;49.118;8.508;2022-07-23T23:01:30;25.40;93.20
20167;DHT22;10243;49.118;8.508;2022-07-23T23:04:32;25.40;92.70
20167;DHT22;10243;49.118;8.508;2022-07-23T23:07:36;25.40;92.40
20167;DHT22;10243;49.118;8.508;2022-07-23T23:10:38;25.40;92.40
20167;DHT22;10243;49.118;8.508;2022-07-23T23:13:39;25.40;92.40
20167;DHT22;10243;49.118;8.508;2022-07-23T23:16:41;25.20;92.10
20167;DHT22;10243;49.118;8.508;2022-07-23T23:19:43;25.00;92.60
20167;DHT22;10243;49.118;8.508;2022-07-23T23:22:47;24.90;92.60
20167;DHT22;10243;49.118;8.508;2022-07-23T23:25:49;25.00;93.10
20167;DHT22;10243;49.118;8.508;2022-07-23T23:28:51;25.10;93.30
20167;DHT22;10243;49.118;8.508;2022-07-23T23:31:52;24.90;92.60
20167;DHT22;10243;49.118;8.508;2022-07-23T23:34:54;24.60;93.00
20167;DHT22;10243;49.118;8.508;2022-07-23T23:37:58;24.40;93.20
20167;DHT22;10243;49.118;8.508;2022-07-23T23:41:00;24.50;93.40
20167;DHT22;10243;49.118;8.508;2022-07-23T23:44:02;24.20;93.90
20167;DHT22;10243;49.118;8.508;2022-07-23T23:47:04;24.20;94.60
20167;DHT22;10243;49.118;8.508;2022-07-23T23:50:06;24.50;94.20
20167;DHT22;10243;49.118;8.508;2022-07-23T23:53:09;24.60;94.40
20167;DHT22;10243;49.118;8.508;2022-07-23T23:56:11;24.70;94.50
20167;DHT22;10243;49.118;8.508;2022-07-23T23:59:14;24.70;94.30
